Latest Weather Observations for Ballarat

IDV60801

Issued at 10:05 am EST Thursday 21 August 2014 (issued every 30 minutes, with the page automatically refreshed every 10 minutes)

About weather observations | Map of weather stations | Latest weather observations for VIC | Other Formats
Station Details ID: 089002 Name: BALLARAT AERODROME Lat: -37.51 Lon: 143.79 Height: 435.2 m
Data from the previous 72 hours. | See also: Recent months at Ballarat
Date/Time
EST
Temp
°C
App
Temp
°C
Dew
Point
Rel
Hum
%
Delta-T
°C
Wind Press
QNH
hPa
Press
MSL
hPa
Rain
since 9 am
mm
Dir
 
Spd
km/h
Gust
km/h
Spd
kts
Gust
kts
21/10:00am 9.3 6.7 5.9 79 1.6 NE 9 15 5 8 1028.2 1028.9 0.0
21/09:30am 9.0 6.3 5.6 79 1.6 ENE 9 13 5 7 1028.1 1028.8 0.0
21/09:00am 7.8 5.1 5.4 85 1.1 E 9 11 5 6 1028.2 1028.9 0.0
21/08:30am 6.7 4.5 5.5 92 0.5 SE 6 9 3 5 1028.2 1028.9 0.0
21/08:00am 5.7 3.3 5.3 97 0.2 E 7 11 4 6 1027.7 1028.5 0.0
21/07:30am 5.0 1.7 4.6 97 0.2 E 11 15 6 8 1027.3 1028.1 0.0
21/07:00am 4.3 -0.4 3.3 93 0.4 E 17 20 9 11 1027.0 1027.8 0.0
21/06:30am 4.6 0.1 4.0 96 0.3 E 17 20 9 11 1026.8 1027.6 0.0
21/06:00am 4.1 -0.1 3.8 98 0.1 ESE 15 19 8 10 1026.6 1027.4 0.0
21/05:30am 3.8 -0.5 3.5 98 0.1 ESE 15 19 8 10 1026.5 1027.2 0.0
21/05:00am 3.5 -1.2 3.2 98 0.1 ESE 17 20 9 11 1026.6 1027.4 0.0
21/04:30am 3.1 -1.7 2.8 98 0.1 SE 17 20 9 11 1026.6 1027.4 0.0
21/04:00am 3.5 -1.2 3.2 98 0.1 SE 17 22 9 12 1026.6 1027.4 0.0
21/03:30am 3.5 -1.2 3.2 98 0.1 SE 17 20 9 11 1026.5 1027.2 0.0
21/03:00am 3.9 -1.1 3.8 99 0.0 SE 19 22 10 12 1026.7 1027.5 0.0
21/02:30am 3.7 -1.5 3.6 99 0.0 ESE 20 28 11 15 1026.9 1027.7 0.0
21/02:00am 3.5 -1.2 3.4 99 0.0 SE 17 24 9 13 1026.9 1027.7 0.0
21/01:30am 2.6 -2.6 2.5 99 0.0 SE 19 20 10 11 1026.8 1027.6 0.0
21/01:00am 1.2 -3.5 1.1 99 0.0 SE 15 19 8 10 1026.9 1027.7 0.0
21/12:53am 0.6 -3.8 0.5 99 0.0 SE 13 15 7 8 1027.0 1027.8 0.0
21/12:30am -0.2 -3.0 -0.5 98 0.1 ESE 4 6 2 3 1027.0 1027.8 0.0
21/12:00am -0.3 -3.5 -0.6 98 0.1 NNW 6 7 3 4 1026.9 1027.7 0.0
 
Date/Time
EST
Temp
°C
App
Temp
°C
Dew
Point
Rel
Hum
%
Delta-T
°C
Wind Press
QNH
hPa
Press
MSL
hPa
Rain
since 9 am
mm
Dir
 
Spd
km/h
Gust
km/h
Spd
kts
Gust
kts
20/11:47pm -0.2 -2.6 -0.5 98 0.1 N 2 7 1 4 1027.0 1027.8 0.0
20/11:30pm 0.1 -3.1 -0.2 98 0.1 NE 6 6 3 3 1027.0 1027.8 0.0
20/11:00pm 2.2 -1.6 1.9 98 0.1 S 11 13 6 7 1027.1 1027.9 0.0
20/10:30pm 1.5 -2.0 1.2 98 0.1 S 9 11 5 6 1027.3 1028.1 0.0
20/10:00pm 2.1 -0.9 1.8 98 0.1 S 7 9 4 5 1027.4 1028.2 0.0
20/09:30pm 3.0 -0.6 2.7 98 0.1 S 11 13 6 7 1027.4 1028.2 0.0
20/09:00pm 3.0 -0.5 1.5 90 0.6 S 9 11 5 6 1027.4 1028.2 0.0
20/08:30pm 4.3 1.0 2.3 87 0.8 SSE 9 11 5 6 1027.2 1028.0 0.0
20/08:00pm 4.9 0.7 1.7 80 1.3 SSE 13 17 7 9 1027.2 1028.0 0.0
20/07:30pm 6.5 2.4 2.0 73 1.9 SSE 13 15 7 8 1027.1 1027.9 0.0
20/07:00pm 7.7 2.5 2.4 69 2.2 SSE 19 26 10 14 1027.1 1027.9 0.0
20/06:30pm 7.7 3.3 2.8 71 2.1 SSE 15 20 8 11 1027.0 1027.8 0.0
20/06:00pm 7.9 4.2 4.3 78 1.6 SSE 13 19 7 10 1026.8 1027.6 0.0
20/05:30pm 8.0 3.8 3.8 75 1.9 S 15 19 8 10 1026.5 1027.2 0.0
20/05:00pm 8.2 3.7 4.0 75 1.9 SSE 17 19 9 10 1026.3 1027.0 0.0
20/04:30pm 8.6 4.6 2.8 67 2.5 SSE 13 19 7 10 1026.1 1026.8 0.0
20/04:00pm 8.6 4.2 2.8 67 2.5 SSE 15 24 8 13 1026.0 1026.7 0.0
20/03:30pm 8.8 4.5 3.4 69 2.4 SE 15 20 8 11 1025.9 1026.6 0.0
20/03:00pm 8.8 4.1 3.0 67 2.5 S 17 20 9 11 1025.8 1026.5 0.0
20/02:30pm 8.9 4.3 3.9 71 2.2 SSE 17 19 9 10 1025.7 1026.4 0.0
20/02:00pm 8.8 3.6 3.8 71 2.2 S 20 24 11 13 1025.6 1026.3 0.0
20/01:30pm 9.8 5.3 4.2 68 2.5 SE 17 22 9 12 1025.6 1026.3 0.0
20/01:00pm 9.3 4.1 3.5 67 2.6 SSE 20 26 11 14 1025.9 1026.6 0.0
20/12:30pm 9.0 4.0 3.6 69 2.4 SSE 19 24 10 13 1026.2 1026.9 0.0
20/12:00pm 9.1 4.5 3.7 69 2.4 SE 17 24 9 13 1026.4 1027.1 0.0
20/11:30am 8.6 3.4 3.8 72 2.1 SE 20 28 11 15 1026.7 1027.5 0.0
20/11:00am 7.9 2.5 4.7 80 1.4 SSE 22 30 12 16 1026.8 1027.6 0.0
20/10:30am 7.5 1.9 5.5 87 0.9 SSE 24 33 13 18 1026.5 1027.2 0.0
20/10:00am 7.8 2.1 4.9 82 1.3 SSE 24 32 13 17 1026.4 1027.1 0.0
20/09:30am 7.3 2.3 4.6 83 1.2 SSE 20 28 11 15 1026.3 1027.0 0.0
20/09:00am 7.3 2.4 5.1 86 1.0 S 20 24 11 13 1026.1 1026.8 0.0
20/08:30am 5.9 0.3 5.5 97 0.2 S 24 28 13 15 1026.0 1026.7 0.0
20/08:00am 5.7 0.7 4.7 93 0.4 S 20 32 11 17 1025.7 1026.4 0.0
20/07:30am 5.6 0.5 3.3 85 1.0 S 19 24 10 13 1025.5 1026.2 0.0
20/07:00am 5.5 0.4 2.8 83 1.1 S 19 24 10 13 1025.1 1025.9 0.0
20/06:30am 5.3 0.5 2.7 83 1.1 S 17 20 9 11 1024.8 1025.6 0.0
20/06:00am 5.5 1.1 2.7 82 1.2 S 15 19 8 10 1024.7 1025.5 0.0
20/05:30am 5.6 0.8 2.8 82 1.2 S 17 22 9 12 1024.6 1025.4 0.0
20/05:00am 5.6 1.2 2.8 82 1.2 S 15 20 8 11 1024.6 1025.4 0.0
20/04:30am 5.7 0.9 2.7 81 1.3 S 17 24 9 13 1024.5 1025.2 0.0
20/04:00am 5.6 0.5 2.9 83 1.1 S 19 26 10 14 1024.5 1025.2 0.0
20/03:30am 5.4 0.3 3.1 85 1.0 S 19 26 10 14 1024.4 1025.1 0.0
20/03:00am 5.4 0.3 3.1 85 1.0 S 19 24 10 13 1024.4 1025.1 0.0
20/02:30am 5.5 0.8 3.0 84 1.1 S 17 24 9 13 1024.6 1025.4 0.0
20/02:00am 5.5 0.4 3.3 86 0.9 S 19 22 10 12 1024.7 1025.5 0.0
20/01:30am 5.5 0.9 3.7 88 0.8 S 17 20 9 11 1024.8 1025.6 0.0
20/01:00am 5.6 1.0 3.6 87 0.9 S 17 20 9 11 1025.0 1025.8 0.0
20/12:30am 5.7 1.1 3.5 86 0.9 S 17 22 9 12 1025.0 1025.8 0.0
20/12:00am 5.8 1.2 3.6 86 0.9 S 17 22 9 12 1025.0 1025.8 0.0
 
Date/Time
EST
Temp
°C
App
Temp
°C
Dew
Point
Rel
Hum
%
Delta-T
°C
Wind Press
QNH
hPa
Press
MSL
hPa
Rain
since 9 am
mm
Dir
 
Spd
km/h
Gust
km/h
Spd
kts
Gust
kts
19/11:30pm 5.8 1.3 4.0 88 0.8 S 17 20 9 11 1024.9 1025.7 0.0
19/11:00pm 5.9 1.3 3.9 87 0.9 S 17 20 9 11 1025.1 1025.9 0.0
19/10:30pm 6.1 1.9 3.9 86 1.0 S 15 22 8 12 1025.2 1026.0 0.0
19/10:00pm 6.2 1.7 4.0 86 1.0 S 17 26 9 14 1025.1 1025.9 0.0
19/09:30pm 6.2 1.7 4.4 88 0.8 S 17 22 9 12 1025.0 1025.8 0.0
19/09:00pm 6.1 2.0 4.4 89 0.7 S 15 19 8 10 1025.0 1025.8 0.0
19/08:30pm 6.7 2.5 4.0 83 1.2 SSE 15 22 8 12 1024.8 1025.6 0.0
19/08:00pm 7.2 2.7 4.2 81 1.3 SSE 17 20 9 11 1024.7 1025.5 0.0
19/07:30pm 7.3 3.2 4.6 83 1.2 SSE 15 19 8 10 1024.7 1025.5 0.0
19/07:00pm 7.6 3.9 4.7 82 1.3 SSE 13 17 7 9 1024.5 1025.2 0.0
19/06:30pm 7.7 3.7 4.8 82 1.3 SE 15 19 8 10 1024.1 1024.8 0.0
19/06:00pm 7.9 3.5 4.7 80 1.4 SSE 17 24 9 13 1023.9 1024.6 0.0
19/05:30pm 8.2 3.9 5.1 81 1.4 SSE 17 22 9 12 1023.7 1024.4 0.0
19/05:00pm 8.5 3.6 4.9 78 1.6 S 20 26 11 14 1023.5 1024.2 0.0
19/04:30pm 8.7 3.8 4.3 74 2.0 S 19 26 10 14 1023.5 1024.2 0.0
19/04:00pm 8.8 4.0 4.4 74 2.0 S 19 22 10 12 1023.5 1024.2 0.0
19/03:30pm 8.7 3.4 5.1 78 1.7 S 22 30 12 16 1023.3 1024.0 0.0
19/03:00pm 8.4 3.8 5.5 82 1.3 S 19 26 10 14 1023.3 1024.0 0.0
19/02:30pm 8.8 4.2 5.7 81 1.4 S 19 28 10 15 1023.2 1023.9 0.0
19/02:00pm 8.5 3.7 5.8 83 1.3 S 20 30 11 16 1023.3 1024.0 0.0
19/01:30pm 8.5 3.4 5.8 83 1.3 S 22 28 12 15 1023.4 1024.1 0.0
19/01:00pm 8.8 4.0 5.4 79 1.6 SSE 20 26 11 14 1023.7 1024.4 0.0
19/12:30pm 8.8 3.2 5.2 78 1.7 S 24 30 13 16 1023.8 1024.5 0.0
19/12:00pm 8.8 4.0 5.5 80 1.5 S 20 30 11 16 1024.1 1024.8 0.0
19/11:30am 8.5 3.7 5.6 82 1.3 SSE 20 32 11 17 1024.2 1024.9 0.0
19/11:00am 8.2 2.3 6.0 86 1.0 SSE 26 33 14 18 1024.4 1025.1 0.0
19/10:30am 8.2 2.4 6.3 88 0.9 SSE 26 35 14 19 1024.3 1025.0 0.0
19/10:29am 8.1 2.3 6.4 89 0.8 SSE 26 35 14 19 1024.3 1025.0 0.0
19/10:00am 8.1 2.6 7.7 97 0.2 SSE 26 37 14 20 1024.1 1024.8 0.0
19/09:30am 7.9 2.4 7.6 98 0.1 SSE 26 35 14 19 1024.0 1024.7 0.0
19/09:00am 7.2 1.9 6.9 98 0.1 SSE 24 33 13 18 1023.8 1024.5 0.8
19/08:30am 6.9 1.6 6.8 99 0.0 SSE 24 32 13 17 1023.6 1024.3 0.8
19/08:00am 6.5 0.7 6.4 99 0.0 S 26 37 14 20 1023.3 1024.0 0.8
19/07:46am 6.6 1.2 6.5 99 0.0 SSE 24 33 13 18 1023.2 1023.9 0.8
19/07:30am 6.6 1.2 6.5 99 0.0 S 24 35 13 19 1023.1 1023.8 0.8
19/07:17am 6.5 1.1 6.4 99 0.0 SSE 24 30 13 16 1022.8 1023.6 0.8
19/07:00am 6.4 0.6 6.3 99 0.0 SSE 26 33 14 18 1022.7 1023.5 0.8
19/06:58am 6.4 0.6 6.3 99 0.0 SSE 26 33 14 18 1022.7 1023.5 0.8
19/06:49am 6.4 0.6 6.3 99 0.0 S 26 35 14 19 1022.6 1023.3 0.8
19/06:30am 6.4 0.6 6.3 99 0.0 SSE 26 35 14 19 1022.5 1023.2 0.8
19/06:00am 6.4 0.6 6.3 99 0.0 SSE 26 35 14 19 1022.2 1022.9 0.8
19/05:30am 6.4 0.6 6.3 99 0.0 SSE 26 33 14 18 1022.1 1022.8 0.8
19/05:00am 6.5 1.1 6.4 99 0.0 SSE 24 33 13 18 1022.1 1022.8 0.8
19/04:30am 6.4 0.6 6.3 99 0.0 S 26 33 14 18 1021.9 1022.6 0.8
19/04:00am 6.3 -0.3 6.2 99 0.0 S 30 37 16 20 1021.8 1022.5 0.8
19/03:49am 6.2 0.0 6.1 99 0.0 S 28 33 15 18 1021.8 1022.5 0.8
19/03:30am 6.2 0.4 6.1 99 0.0 S 26 33 14 18 1021.9 1022.6 0.8
19/03:23am 6.2 0.4 6.1 99 0.0 SSE 26 33 14 18 1021.9 1022.6 0.8
19/03:21am 6.1 0.2 6.0 99 0.0 SSE 26 33 14 18 1021.9 1022.6 0.8
19/03:17am 6.1 0.2 6.0 99 0.0 SSE 26 33 14 18 1021.8 1022.5 0.8
19/03:00am 6.0 -0.3 5.9 99 0.0 SSE 28 39 15 21 1021.7 1022.4 0.8
19/02:49am 5.9 -0.4 5.8 99 0.0 SSE 28 37 15 20 1021.8 1022.5 0.8
19/02:30am 6.3 0.1 6.2 99 0.0 SSE 28 37 15 20 1021.9 1022.6 0.8
19/02:00am 6.2 -0.8 6.1 99 0.0 SSE 32 43 17 23 1022.0 1022.7 0.8
19/01:30am 6.4 -0.5 6.3 99 0.0 S 32 41 17 22 1022.1 1022.8 0.8
19/01:00am 6.6 -0.3 6.5 99 0.0 S 32 39 17 21 1022.2 1022.9 0.8
19/12:38am 6.8 1.1 6.7 99 0.0 S 26 33 14 18 1022.1 1022.8 0.8
19/12:37am 6.8 1.1 6.7 99 0.0 S 26 33 14 18 1022.1 1022.8 0.8
19/12:30am 6.8 1.5 6.7 99 0.0 S 24 33 13 18 1022.1 1022.8 0.8
19/12:00am 6.8 1.5 6.7 99 0.0 S 24 30 13 16 1022.2 1022.9 0.8
 
Date/Time
EST
Temp
°C
App
Temp
°C
Dew
Point
Rel
Hum
%
Delta-T
°C
Wind Press
QNH
hPa
Press
MSL
hPa
Rain
since 9 am
mm
Dir
 
Spd
km/h
Gust
km/h
Spd
kts
Gust
kts
18/11:31pm 6.7 1.0 6.6 99 0.0 S 26 33 14 18 1022.4 1023.1 0.8
18/11:30pm 6.7 1.0 6.6 99 0.0 S 26 33 14 18 1022.4 1023.1 0.8
18/11:11pm 6.8 2.2 6.5 98 0.1 S 20 30 11 16 1022.3 1023.0 0.8
18/11:00pm 6.9 1.6 6.6 98 0.1 SSE 24 32 13 17 1022.4 1023.1 0.8
18/10:33pm 6.8 1.9 6.7 99 0.0 S 22 30 12 16 1022.3 1023.0 0.8
18/10:30pm 6.9 1.6 6.8 99 0.0 S 24 32 13 17 1022.2 1022.9 0.8
18/10:16pm 6.9 0.8 6.8 99 0.0 SSE 28 35 15 19 1022.1 1022.8 0.8
18/10:00pm 6.9 1.2 6.8 99 0.0 S 26 33 14 18 1022.2 1022.9 0.8
18/09:58pm 6.9 0.8 6.8 99 0.0 S 28 33 15 18 1022.1 1022.8 0.8
18/09:30pm 7.1 1.5 7.0 99 0.0 S 26 32 14 17 1022.1 1022.8 0.8
18/09:00pm 7.2 1.6 7.1 99 0.0 SSE 26 33 14 18 1021.9 1022.6 0.8
18/08:39pm 7.4 2.6 7.3 99 0.0 S 22 28 12 15 1021.8 1022.5 0.8
18/08:30pm 7.4 2.6 7.3 99 0.0 SSE 22 30 12 16 1021.7 1022.4 0.8
18/08:07pm 7.3 2.1 7.2 99 0.0 SSE 24 32 13 17 1021.5 1022.2 0.4
18/08:00pm 7.3 2.1 7.2 99 0.0 SSE 24 32 13 17 1021.4 1022.1 0.4
18/07:48pm 7.3 2.1 7.2 99 0.0 SSE 24 32 13 17 1021.4 1022.1 0.4
18/07:30pm 7.3 2.0 7.0 98 0.1 SSE 24 32 13 17 1021.2 1021.9 0.4
18/07:00pm 7.3 2.0 7.0 98 0.1 SSE 24 32 13 17 1021.1 1021.8 0.4
18/06:30pm 7.4 2.2 7.1 98 0.1 SSE 24 33 13 18 1021.0 1021.7 0.2
18/06:00pm 7.3 2.4 7.0 98 0.1 SSE 22 28 12 15 1020.7 1021.3 0.2
18/05:30pm 7.6 2.2 6.2 91 0.7 SSE 24 33 13 18 1020.6 1021.2 0.0
18/05:27pm 7.7 2.3 6.2 90 0.7 SSE 24 33 13 18 1020.6 1021.2 0.0
18/05:00pm 7.8 2.3 7.4 97 0.2 SE 26 35 14 19 1020.1 1020.8 0.0
18/04:46pm 8.0 3.3 7.7 98 0.1 SSE 22 28 12 15 1020.0 1020.7 0.0
18/04:36pm 8.0 3.3 7.7 98 0.1 SSE 22 33 12 18 1019.9 1020.6 0.0
18/04:30pm 7.9 3.2 7.6 98 0.1 SSE 22 30 12 16 1019.9 1020.6 0.0
18/04:19pm 7.8 2.7 7.5 98 0.1 SSE 24 32 13 17 1019.9 1020.6 0.0
18/04:12pm 7.9 3.2 7.6 98 0.1 SSE 22 32 12 17 1019.9 1020.6 0.0
18/04:00pm 7.9 2.8 7.6 98 0.1 SSE 24 32 13 17 1019.8 1020.5 0.0
18/03:58pm 7.9 2.8 7.6 98 0.1 SSE 24 32 13 17 1019.8 1020.5 0.0
18/03:46pm 8.0 3.3 7.7 98 0.1 SSE 22 28 12 15 1019.8 1020.5 0.0
18/03:30pm 8.0 2.9 7.7 98 0.1 SSE 24 32 13 17 1019.7 1020.4 0.0
18/03:00pm 8.8 4.3 8.5 98 0.1 SSE 22 33 12 18 1019.6 1020.3 0.0
18/02:30pm 8.4 3.0 8.1 98 0.1 SSE 26 35 14 19 1019.5 1020.2 0.0
18/02:00pm 8.3 2.9 7.9 97 0.2 SSE 26 35 14 19 1019.6 1020.3 0.0
18/01:30pm 8.3 2.8 7.5 95 0.4 SSE 26 35 14 19 1019.7 1020.4 0.0
18/01:00pm 8.4 2.4 7.0 91 0.7 SSE 28 39 15 21 1020.0 1020.7 0.0
18/12:30pm 8.3 2.0 7.4 94 0.4 SSE 30 39 16 21 1020.2 1020.9 0.0
18/12:00pm 8.0 1.1 7.4 96 0.3 SSE 33 43 18 23 1020.2 1020.9 0.0
18/11:34am 8.3 1.0 7.1 92 0.6 S 35 50 19 27 1020.6 1021.2 0.0
18/11:30am 7.8 0.4 6.6 92 0.6 S 35 50 19 27 1020.7 1021.3 0.0
18/11:10am 8.0 1.0 6.0 87 0.9 SSE 32 41 17 22 1020.7 1021.3 0.0
18/11:00am 8.1 1.1 5.9 86 1.0 SSE 32 44 17 24 1020.6 1021.2 0.0
18/10:30am 8.1 1.1 7.0 93 0.5 S 33 43 18 23 1020.6 1021.2 0.0

Other Formats:

Comma delimited format used in spreadsheet applications
http://www.bom.gov.au/fwo/IDV60801/IDV60801.94852.axf

JavaScript Object Notation format (JSON) in row-major order
http://www.bom.gov.au/fwo/IDV60801/IDV60801.94852.json